sensor_id;sensor_type;location;lat;lon;timestamp;pressure;altitude;pressure_sealevel;temperature;humidity
47054;BME280;32811;52.382;5.270;2023-03-01T00:01:06;103338.63;;;-1.54;100.00
47054;BME280;32811;52.382;5.270;2023-03-01T00:03:33;103334.06;;;-1.58;100.00
47054;BME280;32811;52.382;5.270;2023-03-01T00:06:01;103329.56;;;-1.61;100.00
47054;BME280;32811;52.382;5.270;2023-03-01T00:08:28;103332.09;;;-1.61;100.00
47054;BME280;32811;52.382;5.270;2023-03-01T00:11:07;103336.88;;;-1.64;100.00
47054;BME280;32811;52.382;5.270;2023-03-01T00:13:35;103334.81;;;-1.68;100.00
47054;BME280;32811;52.382;5.270;2023-03-01T00:16:06;103331.25;;;-1.70;100.00
47054;BME280;32811;52.382;5.270;2023-03-01T00:18:33;103327.41;;;-1.75;100.00
47054;BME280;32811;52.382;5.270;2023-03-01T00:21:00;103328.16;;;-1.76;100.00
47054;BME280;32811;52.382;5.270;2023-03-01T00:23:27;103314.75;;;-1.84;100.00
47054;BME280;32811;52.382;5.270;2023-03-01T00:25:54;103311.34;;;-1.84;100.00
47054;BME280;32811;52.382;5.270;2023-03-01T00:28:21;103311.34;;;-1.84;100.00
47054;BME280;32811;52.382;5.270;2023-03-01T00:30:47;103313.59;;;-1.88;100.00
47054;BME280;32811;52.382;5.270;2023-03-01T00:33:14;103306.72;;;-1.89;100.00
47054;BME280;32811;52.382;5.270;2023-03-01T00:35:41;103308.38;;;-1.89;100.00
47054;BME280;32811;52.382;5.270;2023-03-01T00:38:08;103298.84;;;-1.92;100.00
47054;BME280;32811;52.382;5.270;2023-03-01T00:40:35;103294.97;;;-1.97;100.00
47054;BME280;32811;52.382;5.270;2023-03-01T00:43:02;103311.50;;;-1.92;100.00
47054;BME280;32811;52.382;5.270;2023-03-01T00:45:30;103308.66;;;-1.95;100.00
47054;BME280;32811;52.382;5.270;2023-03-01T00:47:57;103300.53;;;-2.01;100.00
47054;BME280;32811;52.382;5.270;2023-03-01T00:50:24;103299.47;;;-2.03;100.00
47054;BME280;32811;52.382;5.270;2023-03-01T00:52:55;103302.28;;;-2.00;100.00
47054;BME280;32811;52.382;5.270;2023-03-01T00:55:22;103299.16;;;-2.06;100.00
47054;BME280;32811;52.382;5.270;2023-03-01T00:57:49;103300.38;;;-2.02;100.00
47054;BME280;32811;52.382;5.270;2023-03-01T01:00:16;103305.28;;;-2.04;100.00
47054;BME280;32811;52.382;5.270;2023-03-01T01:02:43;103303.19;;;-2.08;100.00
47054;BME280;32811;52.382;5.270;2023-03-01T01:05:10;103293.84;;;-2.09;100.00
47054;BME280;32811;52.382;5.270;2023-03-01T01:07:37;103295.75;;;-2.06;100.00
47054;BME280;32811;52.382;5.270;2023-03-01T01:10:05;103292.94;;;-2.10;100.00
47054;BME280;32811;52.382;5.270;2023-03-01T01:12:32;103276.91;;;-2.19;100.00
47054;BME280;32811;52.382;5.270;2023-03-01T01:14:59;103288.47;;;-2.12;100.00
47054;BME280;32811;52.382;5.270;2023-03-01T01:17:25;103268.09;;;-2.22;100.00
47054;BME280;32811;52.382;5.270;2023-03-01T01:19:52;103283.56;;;-2.19;100.00
47054;BME280;32811;52.382;5.270;2023-03-01T01:22:18;103276.59;;;-2.22;100.00
47054;BME280;32811;52.382;5.270;2023-03-01T01:24:45;103271.25;;;-2.25;100.00
47054;BME280;32811;52.382;5.270;2023-03-01T01:27:12;103273.63;;;-2.26;100.00
47054;BME280;32811;52.382;5.270;2023-03-01T01:29:38;103266.63;;;-2.29;100.00
47054;BME280;32811;52.382;5.270;2023-03-01T01:32:05;103270.19;;;-2.27;100.00
47054;BME280;32811;52.382;5.270;2023-03-01T01:34:31;103266.47;;;-2.31;100.00
47054;BME280;32811;52.382;5.270;2023-03-01T01:36:58;103269.88;;;-2.30;100.00
47054;BME280;32811;52.382;5.270;2023-03-01T01:39:29;103269.88;;;-2.30;100.00
47054;BME280;32811;52.382;5.270;2023-03-01T01:41:55;103273.34;;;-2.30;100.00
47054;BME280;32811;52.382;5.270;2023-03-01T01:44:25;103266.19;;;-2.34;100.00
47054;BME280;32811;52.382;5.270;2023-03-01T01:47:19;103257.56;;;-2.36;100.00
47054;BME280;32811;52.382;5.270;2023-03-01T01:49:55;103254.00;;;-2.38;100.00
47054;BME280;32811;52.382;5.270;2023-03-01T01:52:29;103257.41;;;-2.37;100.00
47054;BME280;32811;52.382;5.270;2023-03-01T01:55:03;103252.66;;;-2.43;100.00
47054;BME280;32811;52.382;5.270;2023-03-01T01:57:40;103248.06;;;-2.47;100.00
47054;BME280;32811;52.382;5.270;2023-03-01T02:00:15;103258.47;;;-2.44;100.00
47054;BME280;32811;52.382;5.270;2023-03-01T02:02:43;103257.41;;;-2.46;100.00
47054;BME280;32811;52.382;5.270;2023-03-01T02:08:08;103241.09;;;-2.58;100.00
47054;BME280;32811;52.382;5.270;2023-03-01T02:10:34;103249.56;;;-2.58;100.00
47054;BME280;32811;52.382;5.270;2023-03-01T02:13:02;103251.34;;;-2.57;100.00
47054;BME280;32811;52.382;5.270;2023-03-01T02:15:33;103236.47;;;-2.62;100.00
47054;BME280;32811;52.382;5.270;2023-03-01T02:18:01;103247.78;;;-2.59;100.00
47054;BME280;32811;52.382;5.270;2023-03-01T02:23:15;103247.19;;;-2.65;100.00
47054;BME280;32811;52.382;5.270;2023-03-01T02:25:58;103247.63;;;-2.60;100.00
47054;BME280;32811;52.382;5.270;2023-03-01T02:28:37;103246.56;;;-2.62;100.00
47054;BME280;32811;52.382;5.270;2023-03-01T02:31:08;103233.50;;;-2.67;100.00
47054;BME280;32811;52.382;5.270;2023-03-01T02:34:19;103220.41;;;-2.72;100.00
47054;BME280;32811;52.382;5.270;2023-03-01T02:36:53;103221.91;;;-2.74;100.00
47054;BME280;32811;52.382;5.270;2023-03-01T02:39:33;103224.88;;;-2.69;100.00
47054;BME280;32811;52.382;5.270;2023-03-01T02:42:03;103234.09;;;-2.69;100.00
47054;BME280;32811;52.382;5.270;2023-03-01T02:44:30;103232.19;;;-2.72;100.00
47054;BME280;32811;52.382;5.270;2023-03-01T02:47:00;103225.75;;;-2.77;100.00
47054;BME280;32811;52.382;5.270;2023-03-01T02:49:31;103219.53;;;-2.81;100.00
47054;BME280;32811;52.382;5.270;2023-03-01T02:54:46;103221.31;;;-2.80;100.00
47054;BME280;32811;52.382;5.270;2023-03-01T02:57:15;103219.53;;;-2.81;100.00
47054;BME280;32811;52.382;5.270;2023-03-01T02:59:42;103213.44;;;-2.83;100.00
47054;BME280;32811;52.382;5.270;2023-03-01T03:07:39;103214.16;;;-2.84;100.00
47054;BME280;32811;52.382;5.270;2023-03-01T03:10:10;103209.88;;;-2.85;100.00
47054;BME280;32811;52.382;5.270;2023-03-01T03:12:38;103202.44;;;-2.92;100.00
47054;BME280;32811;52.382;5.270;2023-03-01T03:15:07;103206.00;;;-2.90;100.00
47054;BME280;32811;52.382;5.270;2023-03-01T03:17:36;103194.41;;;-2.97;100.00
47054;BME280;32811;52.382;5.270;2023-03-01T03:20:04;103203.16;;;-2.93;100.00
47054;BME280;32811;52.382;5.270;2023-03-01T03:22:32;103198.72;;;-2.96;100.00
47054;BME280;32811;52.382;5.270;2023-03-01T03:25:00;103196.78;;;-2.98;100.00
47054;BME280;32811;52.382;5.270;2023-03-01T03:27:27;103178.50;;;-3.04;100.00
47054;BME280;32811;52.382;5.270;2023-03-01T03:29:54;103171.69;;;-3.05;100.00
47054;BME280;32811;52.382;5.270;2023-03-01T03:32:21;103175.69;;;-3.07;100.00
47054;BME280;32811;52.382;5.270;2023-03-01T03:34:47;103177.00;;;-3.02;100.00
47054;BME280;32811;52.382;5.270;2023-03-01T03:37:14;103176.13;;;-3.03;100.00
47054;BME280;32811;52.382;5.270;2023-03-01T03:40:01;103172.28;;;-3.08;100.00
47054;BME280;32811;52.382;5.270;2023-03-01T03:42:27;103174.81;;;-3.08;100.00
47054;BME280;32811;52.382;5.270;2023-03-01T03:44:54;103174.66;;;-3.09;100.00
47054;BME280;32811;52.382;5.270;2023-03-01T03:47:21;103164.09;;;-3.14;100.00
47054;BME280;32811;52.382;5.270;2023-03-01T03:49:47;103178.94;;;-3.08;100.00
47054;BME280;32811;52.382;5.270;2023-03-01T03:52:14;103187.44;;;-3.08;100.00
47054;BME280;32811;52.382;5.270;2023-03-01T03:54:40;103175.09;;;-3.14;100.00
47054;BME280;32811;52.382;5.270;2023-03-01T03:57:07;103182.94;;;-3.10;100.00
47054;BME280;32811;52.382;5.270;2023-03-01T03:59:33;103181.03;;;-3.13;100.00
47054;BME280;32811;52.382;5.270;2023-03-01T04:02:00;103174.94;;;-3.15;100.00
47054;BME280;32811;52.382;5.270;2023-03-01T04:04:27;103170.19;;;-3.21;100.00
47054;BME280;32811;52.382;5.270;2023-03-01T04:06:53;103153.38;;;-3.29;100.00
47054;BME280;32811;52.382;5.270;2023-03-01T04:09:20;103173.88;;;-3.17;100.00
47054;BME280;32811;52.382;5.270;2023-03-01T04:11:46;103159.31;;;-3.28;100.00
47054;BME280;32811;52.382;5.270;2023-03-01T04:14:13;103170.78;;;-3.23;100.00
47054;BME280;32811;52.382;5.270;2023-03-01T04:16:40;103163.63;;;-3.27;100.00
47054;BME280;32811;52.382;5.270;2023-03-01T04:19:06;103170.63;;;-3.25;100.00
47054;BME280;32811;52.382;5.270;2023-03-01T04:21:33;103183.53;;;-3.22;100.00
47054;BME280;32811;52.382;5.270;2023-03-01T04:23:59;103178.47;;;-3.30;100.00
47054;BME280;32811;52.382;5.270;2023-03-01T04:26:26;103183.84;;;-3.27;100.00
47054;BME280;32811;52.382;5.270;2023-03-01T04:28:53;103172.84;;;-3.37;100.00
47054;BME280;32811;52.382;5.270;2023-03-01T04:31:20;103175.22;;;-3.29;100.00
47054;BME280;32811;52.382;5.270;2023-03-01T04:33:53;103162.31;;;-3.32;100.00
47054;BME280;32811;52.382;5.270;2023-03-01T04:36:22;103149.69;;;-3.41;100.00
47054;BME280;32811;52.382;5.270;2023-03-01T04:38:50;103167.91;;;-3.35;100.00
47054;BME280;32811;52.382;5.270;2023-03-01T04:41:18;103172.97;;;-3.35;100.00
47054;BME280;32811;52.382;5.270;2023-03-01T04:43:46;103165.88;;;-3.39;100.00
47054;BME280;32811;52.382;5.270;2023-03-01T04:46:15;103165.69;;;-3.41;100.00
47054;BME280;32811;52.382;5.270;2023-03-01T04:48:44;103172.41;;;-3.41;100.00
47054;BME280;32811;52.382;5.270;2023-03-01T04:51:11;103163.63;;;-3.45;100.00
47054;BME280;32811;52.382;5.270;2023-03-01T04:53:42;103172.22;;;-3.43;100.00
47054;BME280;32811;52.382;5.270;2023-03-01T04:56:09;103161.84;;;-3.46;100.00
47054;BME280;32811;52.382;5.270;2023-03-01T04:58:36;103153.34;;;-3.46;100.00
47054;BME280;32811;52.382;5.270;2023-03-01T05:01:18;103152.63;;;-3.45;100.00
47054;BME280;32811;52.382;5.270;2023-03-01T05:03:50;103156.34;;;-3.42;100.00
47054;BME280;32811;52.382;5.270;2023-03-01T05:06:18;103143.56;;;-3.43;100.00
47054;BME280;32811;52.382;5.270;2023-03-01T05:08:45;103151.75;;;-3.46;100.00
47054;BME280;32811;52.382;5.270;2023-03-01T05:11:12;103145.50;;;-3.49;100.00
47054;BME280;32811;52.382;5.270;2023-03-01T05:13:39;103151.88;;;-3.44;100.00
47054;BME280;32811;52.382;5.270;2023-03-01T05:16:07;103139.84;;;-3.47;100.00
47054;BME280;32811;52.382;5.270;2023-03-01T05:18:38;103132.88;;;-3.49;100.00
47054;BME280;32811;52.382;5.270;2023-03-01T05:21:10;103132.59;;;-3.52;100.00
47054;BME280;32811;52.382;5.270;2023-03-01T05:23:37;103127.22;;;-3.56;100.00
47054;BME280;32811;52.382;5.270;2023-03-01T05:26:05;103130.19;;;-3.51;100.00
47054;BME280;32811;52.382;5.270;2023-03-01T05:28:37;103120.53;;;-3.55;100.00
47054;BME280;32811;52.382;5.270;2023-03-01T05:31:04;103119.97;;;-3.52;100.00
47054;BME280;32811;52.382;5.270;2023-03-01T05:33:40;103123.03;;;-3.55;100.00
47054;BME280;32811;52.382;5.270;2023-03-01T05:36:08;103113.56;;;-3.58;100.00
47054;BME280;32811;52.382;5.270;2023-03-01T05:38:36;103118.16;;;-3.53;100.00
47054;BME280;32811;52.382;5.270;2023-03-01T05:41:03;103110.91;;;-3.59;100.00
47054;BME280;32811;52.382;5.270;2023-03-01T05:43:30;103111.94;;;-3.57;100.00
47054;BME280;32811;52.382;5.270;2023-03-01T05:46:00;103103.16;;;-3.61;100.00
47054;BME280;32811;52.382;5.270;2023-03-01T05:48:27;103110.31;;;-3.57;100.00
47054;BME280;32811;52.382;5.270;2023-03-01T05:50:53;103107.03;;;-3.56;100.00
47054;BME280;32811;52.382;5.270;2023-03-01T05:53:20;103101.38;;;-3.62;100.00
47054;BME280;32811;52.382;5.270;2023-03-01T05:55:49;103104.81;;;-3.61;100.00
47054;BME280;32811;52.382;5.270;2023-03-01T05:58:18;103098.56;;;-3.65;100.00
47054;BME280;32811;52.382;5.270;2023-03-01T06:00:47;103097.50;;;-3.67;100.00
47054;BME280;32811;52.382;5.270;2023-03-01T06:03:16;103088.31;;;-3.75;100.00
47054;BME280;32811;52.382;5.270;2023-03-01T06:05:43;103101.50;;;-3.69;100.00
47054;BME280;32811;52.382;5.270;2023-03-01T06:08:11;103097.06;;;-3.71;100.00
47054;BME280;32811;52.382;5.270;2023-03-01T06:10:38;103103.59;;;-3.65;100.00
47054;BME280;32811;52.382;5.270;2023-03-01T06:13:05;103099.59;;;-3.63;100.00
47054;BME280;32811;52.382;5.270;2023-03-01T06:15:31;103099.16;;;-3.59;100.00
47054;BME280;32811;52.382;5.270;2023-03-01T06:17:58;103095.44;;;-3.53;100.00
47054;BME280;32811;52.382;5.270;2023-03-01T06:20:27;103097.38;;;-3.51;100.00
47054;BME280;32811;52.382;5.270;2023-03-01T06:22:54;103096.66;;;-3.41;100.00
47054;BME280;32811;52.382;5.270;2023-03-01T06:25:23;103101.38;;;-3.36;100.00
47054;BME280;32811;52.382;5.270;2023-03-01T06:27:50;103103.91;;;-3.18;100.00
47054;BME280;32811;52.382;5.270;2023-03-01T06:30:20;103108.06;;;-3.01;100.00
47054;BME280;32811;52.382;5.270;2023-03-01T06:32:48;103101.50;;;-2.90;100.00
47054;BME280;32811;52.382;5.270;2023-03-01T06:35:16;103116.34;;;-2.76;100.00
47054;BME280;32811;52.382;5.270;2023-03-01T06:37:47;103121.84;;;-2.72;100.00
47054;BME280;32811;52.382;5.270;2023-03-01T06:40:14;103122.13;;;-2.68;100.00
47054;BME280;32811;52.382;5.270;2023-03-01T06:42:43;103118.72;;;-2.69;100.00
47054;BME280;32811;52.382;5.270;2023-03-01T06:45:10;103115.13;;;-2.71;100.00
47054;BME280;32811;52.382;5.270;2023-03-01T06:47:38;103119.75;;;-2.67;100.00
47054;BME280;32811;52.382;5.270;2023-03-01T06:50:05;103114.25;;;-2.72;100.00
47054;BME280;32811;52.382;5.270;2023-03-01T06:52:31;103111.72;;;-2.72;100.00
47054;BME280;32811;52.382;5.270;2023-03-01T06:54:58;103117.50;;;-2.73;100.00
47054;BME280;32811;52.382;5.270;2023-03-01T06:57:25;103113.38;;;-2.72;100.00
47054;BME280;32811;52.382;5.270;2023-03-01T06:59:52;103099.69;;;-2.74;100.00
47054;BME280;32811;52.382;5.270;2023-03-01T07:02:18;103116.00;;;-2.62;100.00
47054;BME280;32811;52.382;5.270;2023-03-01T07:04:45;103110.06;;;-2.62;100.00
47054;BME280;32811;52.382;5.270;2023-03-01T07:07:11;103123.28;;;-2.56;100.00
47054;BME280;32811;52.382;5.270;2023-03-01T07:09:38;103127.91;;;-2.52;100.00
47054;BME280;32811;52.382;5.270;2023-03-01T07:12:05;103135.00;;;-2.48;100.00
47054;BME280;32811;52.382;5.270;2023-03-01T07:14:32;103134.28;;;-2.47;100.00
47054;BME280;32811;52.382;5.270;2023-03-01T07:16:58;103138.56;;;-2.46;100.00
47054;BME280;32811;52.382;5.270;2023-03-01T07:19:25;103142.75;;;-2.46;100.00
47054;BME280;32811;52.382;5.270;2023-03-01T07:21:52;103143.06;;;-2.52;100.00
47054;BME280;32811;52.382;5.270;2023-03-01T07:24:18;103146.06;;;-2.56;100.00
47054;BME280;32811;52.382;5.270;2023-03-01T07:26:51;103143.66;;;-2.55;100.00
47054;BME280;32811;52.382;5.270;2023-03-01T07:29:18;103145.00;;;-2.49;100.00
47054;BME280;32811;52.382;5.270;2023-03-01T07:31:44;103146.28;;;-2.36;100.00
47054;BME280;32811;52.382;5.270;2023-03-01T07:34:11;103134.97;;;-2.39;100.00
47054;BME280;32811;52.382;5.270;2023-03-01T07:36:38;103142.41;;;-2.32;100.00
47054;BME280;32811;52.382;5.270;2023-03-01T07:39:06;103135.72;;;-2.32;100.00
47054;BME280;32811;52.382;5.270;2023-03-01T07:41:32;103137.91;;;-2.26;100.00
47054;BME280;32811;52.382;5.270;2023-03-01T07:43:59;103128.97;;;-2.22;100.00
47054;BME280;32811;52.382;5.270;2023-03-01T07:46:26;103141.63;;;-2.22;100.00
47054;BME280;32811;52.382;5.270;2023-03-01T07:48:52;103138.75;;;-2.17;100.00
47054;BME280;32811;52.382;5.270;2023-03-01T07:51:19;103139.63;;;-2.07;100.00
47054;BME280;32811;52.382;5.270;2023-03-01T07:53:47;103139.16;;;-2.03;100.00
47054;BME280;32811;52.382;5.270;2023-03-01T07:56:15;103137.00;;;-1.90;100.00
47054;BME280;32811;52.382;5.270;2023-03-01T07:58:44;103136.03;;;-1.73;100.00
47054;BME280;32811;52.382;5.270;2023-03-01T08:01:14;103137.22;;;-1.70;100.00
47054;BME280;32811;52.382;5.270;2023-03-01T08:03:41;103133.50;;;-1.73;100.00
47054;BME280;32811;52.382;5.270;2023-03-01T08:06:09;103114.47;;;-1.78;100.00
47054;BME280;32811;52.382;5.270;2023-03-01T08:08:37;103127.66;;;-1.72;100.00
47054;BME280;32811;52.382;5.270;2023-03-01T08:11:05;103124.53;;;-1.70;100.00
47054;BME280;32811;52.382;5.270;2023-03-01T08:13:33;103125.31;;;-1.52;100.00
47054;BME280;32811;52.382;5.270;2023-03-01T08:16:04;103117.22;;;-1.48;100.00
47054;BME280;32811;52.382;5.270;2023-03-01T08:18:31;103113.53;;;-1.32;100.00
47054;BME280;32811;52.382;5.270;2023-03-01T08:21:06;103112.84;;;-1.21;100.00
47054;BME280;32811;52.382;5.270;2023-03-01T08:23:33;103121.13;;;-1.13;100.00
47054;BME280;32811;52.382;5.270;2023-03-01T08:26:05;103108.00;;;-1.09;100.00
47054;BME280;32811;52.382;5.270;2023-03-01T08:28:33;103129.88;;;-0.91;100.00
47054;BME280;32811;52.382;5.270;2023-03-01T08:30:59;103121.78;;;-0.87;100.00
47054;BME280;32811;52.382;5.270;2023-03-01T08:33:26;103126.78;;;-0.78;100.00
47054;BME280;32811;52.382;5.270;2023-03-01T08:36:02;103118.53;;;-0.75;100.00
47054;BME280;32811;52.382;5.270;2023-03-01T08:38:29;103105.88;;;-0.75;100.00
47054;BME280;32811;52.382;5.270;2023-03-01T08:40:59;103107.63;;;-0.74;100.00
47054;BME280;32811;52.382;5.270;2023-03-01T08:43:25;103106.66;;;-0.56;100.00
47054;BME280;32811;52.382;5.270;2023-03-01T08:45:52;103113.84;;;-0.42;100.00
47054;BME280;32811;52.382;5.270;2023-03-01T08:48:19;103113.00;;;-0.22;100.00
47054;BME280;32811;52.382;5.270;2023-03-01T08:50:46;103116.94;;;-0.05;100.00
47054;BME280;32811;52.382;5.270;2023-03-01T08:53:12;103104.66;;;0.00;100.00
47054;BME280;32811;52.382;5.270;2023-03-01T08:55:39;103112.16;;;0.19;100.00
47054;BME280;32811;52.382;5.270;2023-03-01T08:58:05;103103.88;;;0.22;100.00
47054;BME280;32811;52.382;5.270;2023-03-01T09:00:32;103107.47;;;0.34;100.00
47054;BME280;32811;52.382;5.270;2023-03-01T09:03:01;103085.84;;;0.39;100.00
47054;BME280;32811;52.382;5.270;2023-03-01T09:05:31;103080.75;;;0.59;100.00
47054;BME280;32811;52.382;5.270;2023-03-01T09:07:58;103080.84;;;0.71;100.00
47054;BME280;32811;52.382;5.270;2023-03-01T09:10:25;103082.47;;;0.81;100.00
47054;BME280;32811;52.382;5.270;2023-03-01T09:12:52;103086.34;;;0.98;100.00
47054;BME280;32811;52.382;5.270;2023-03-01T09:15:18;103066.66;;;0.95;100.00
47054;BME280;32811;52.382;5.270;2023-03-01T09:17:45;103080.06;;;1.15;100.00
47054;BME280;32811;52.382;5.270;2023-03-01T09:20:12;103059.94;;;1.18;100.00
47054;BME280;32811;52.382;5.270;2023-03-01T09:22:38;103056.94;;;1.34;100.00
47054;BME280;32811;52.382;5.270;2023-03-01T09:25:05;103056.41;;;1.60;100.00
47054;BME280;32811;52.382;5.270;2023-03-01T09:27:32;103055.44;;;1.70;100.00
47054;BME280;32811;52.382;5.270;2023-03-01T09:29:58;103053.19;;;1.84;100.00
47054;BME280;32811;52.382;5.270;2023-03-01T09:32:25;103049.91;;;1.97;100.00
47054;BME280;32811;52.382;5.270;2023-03-01T09:34:52;103044.84;;;2.09;100.00
47054;BME280;32811;52.382;5.270;2023-03-01T09:37:34;103051.19;;;2.26;100.00
47054;BME280;32811;52.382;5.270;2023-03-01T09:40:02;103054.50;;;2.25;100.00
47054;BME280;32811;52.382;5.270;2023-03-01T09:42:32;103061.06;;;2.33;100.00
47054;BME280;32811;52.382;5.270;2023-03-01T09:45:04;103060.19;;;2.33;100.00
47054;BME280;32811;52.382;5.270;2023-03-01T09:47:33;103059.41;;;2.45;100.00
47054;BME280;32811;52.382;5.270;2023-03-01T09:50:14;103052.44;;;2.55;100.00
47054;BME280;32811;52.382;5.270;2023-03-01T09:52:54;103045.78;;;2.57;100.00
47054;BME280;32811;52.382;5.270;2023-03-01T09:55:39;103056.19;;;2.72;100.00
47054;BME280;32811;52.382;5.270;2023-03-01T09:59:06;103051.84;;;2.94;100.00
47054;BME280;32811;52.382;5.270;2023-03-01T10:09:41;103055.06;;;3.03;100.00
47054;BME280;32811;52.382;5.270;2023-03-01T10:12:15;103051.28;;;3.10;100.00
47054;BME280;32811;52.382;5.270;2023-03-01T10:15:22;103048.72;;;3.22;100.00
47054;BME280;32811;52.382;5.270;2023-03-01T10:17:57;103050.03;;;3.28;100.00
47054;BME280;32811;52.382;5.270;2023-03-01T10:20:29;103048.59;;;3.20;100.00
47054;BME280;32811;52.382;5.270;2023-03-01T10:23:00;103042.81;;;3.23;100.00
47054;BME280;32811;52.382;5.270;2023-03-01T10:28:17;103044.78;;;3.39;100.00
47054;BME280;32811;52.382;5.270;2023-03-01T10:30:45;103035.81;;;3.32;100.00
47054;BME280;32811;52.382;5.270;2023-03-01T10:33:35;103033.00;;;3.41;100.00
47054;BME280;32811;52.382;5.270;2023-03-01T10:36:03;103028.00;;;3.42;100.00
47054;BME280;32811;52.382;5.270;2023-03-01T10:38:33;103028.31;;;3.47;100.00
47054;BME280;32811;52.382;5.270;2023-03-01T10:41:13;103030.41;;;3.52;100.00
47054;BME280;32811;52.382;5.270;2023-03-01T10:43:52;103027.59;;;3.61;100.00
47054;BME280;32811;52.382;5.270;2023-03-01T10:46:32;103014.25;;;3.65;100.00
47054;BME280;32811;52.382;5.270;2023-03-01T10:51:42;103004.44;;;3.71;100.00
47054;BME280;32811;52.382;5.270;2023-03-01T10:54:22;103011.19;;;3.96;100.00
47054;BME280;32811;52.382;5.270;2023-03-01T10:56:51;103008.75;;;3.98;100.00
47054;BME280;32811;52.382;5.270;2023-03-01T10:59:30;103011.69;;;4.04;100.00
47054;BME280;32811;52.382;5.270;2023-03-01T11:07:55;102996.69;;;4.22;100.00
47054;BME280;32811;52.382;5.270;2023-03-01T11:10:34;102996.50;;;4.32;100.00
47054;BME280;32811;52.382;5.270;2023-03-01T11:13:08;102986.97;;;4.29;100.00
47054;BME280;32811;52.382;5.270;2023-03-01T11:15:39;102976.44;;;4.38;100.00
47054;BME280;32811;52.382;5.270;2023-03-01T11:18:19;102975.63;;;4.52;100.00
47054;BME280;32811;52.382;5.270;2023-03-01T11:20:46;102977.31;;;4.52;100.00
47054;BME280;32811;52.382;5.270;2023-03-01T11:23:14;102977.13;;;4.62;96.18
47054;BME280;32811;52.382;5.270;2023-03-01T11:25:58;102976.31;;;4.63;90.71
47054;BME280;32811;52.382;5.270;2023-03-01T11:28:29;102968.94;;;4.68;95.33
47054;BME280;32811;52.382;5.270;2023-03-01T11:31:00;102971.88;;;4.74;95.51
47054;BME280;32811;52.382;5.270;2023-03-01T11:33:43;102963.53;;;4.76;94.47
47054;BME280;32811;52.382;5.270;2023-03-01T11:36:44;102963.81;;;4.81;98.06
47054;BME280;32811;52.382;5.270;2023-03-01T11:42:20;102947.75;;;4.84;88.47
47054;BME280;32811;52.382;5.270;2023-03-01T11:44:54;102947.84;;;4.85;86.85
47054;BME280;32811;52.382;5.270;2023-03-01T11:50:30;102945.75;;;4.93;90.40
47054;BME280;32811;52.382;5.270;2023-03-01T12:04:01;102941.19;;;5.02;83.56
47054;BME280;32811;52.382;5.270;2023-03-01T12:12:13;102945.25;;;4.98;79.14
47054;BME280;32811;52.382;5.270;2023-03-01T12:38:40;102903.31;;;5.39;85.48
47054;BME280;32811;52.382;5.270;2023-03-01T12:46:25;102892.38;;;5.42;76.48
47054;BME280;32811;52.382;5.270;2023-03-01T12:51:30;102889.56;;;5.52;84.37
47054;BME280;32811;52.382;5.270;2023-03-01T12:54:01;102891.00;;;5.47;76.70
47054;BME280;32811;52.382;5.270;2023-03-01T12:56:34;102888.94;;;5.41;76.26
47054;BME280;32811;52.382;5.270;2023-03-01T12:59:15;102889.81;;;5.42;77.08
47054;BME280;32811;52.382;5.270;2023-03-01T13:15:34;102876.22;;;5.43;71.89
47054;BME280;32811;52.382;5.270;2023-03-01T13:20:58;102854.69;;;5.54;70.27
47054;BME280;32811;52.382;5.270;2023-03-01T13:23:29;102862.34;;;5.69;71.96
47054;BME280;32811;52.382;5.270;2023-03-01T13:34:00;102845.94;;;5.66;70.03
47054;BME280;32811;52.382;5.270;2023-03-01T13:38:56;102836.66;;;5.68;72.52
47054;BME280;32811;52.382;5.270;2023-03-01T13:44:32;102835.38;;;5.76;74.99
47054;BME280;32811;52.382;5.270;2023-03-01T13:49:42;102808.81;;;5.74;70.57
47054;BME280;32811;52.382;5.270;2023-03-01T13:52:37;102813.19;;;5.91;68.47
47054;BME280;32811;52.382;5.270;2023-03-01T13:55:41;102809.66;;;5.89;71.16
47054;BME280;32811;52.382;5.270;2023-03-01T14:00:59;102803.13;;;5.79;71.29
47054;BME280;32811;52.382;5.270;2023-03-01T14:03:27;102797.91;;;5.78;73.81
47054;BME280;32811;52.382;5.270;2023-03-01T14:06:12;102805.09;;;5.83;68.22
47054;BME280;32811;52.382;5.270;2023-03-01T14:08:45;102794.56;;;5.79;70.06
47054;BME280;32811;52.382;5.270;2023-03-01T14:19:16;102777.41;;;5.78;66.70
47054;BME280;32811;52.382;5.270;2023-03-01T14:24:31;102770.22;;;5.87;64.60
47054;BME280;32811;52.382;5.270;2023-03-01T14:27:01;102771.06;;;5.86;62.79
47054;BME280;32811;52.382;5.270;2023-03-01T14:29:36;102761.91;;;5.91;63.06
47054;BME280;32811;52.382;5.270;2023-03-01T14:32:20;102724.78;;;5.83;61.61
47054;BME280;32811;52.382;5.270;2023-03-01T14:34:48;102747.88;;;5.99;65.25
47054;BME280;32811;52.382;5.270;2023-03-01T14:39:49;102746.75;;;5.94;70.48
47054;BME280;32811;52.382;5.270;2023-03-01T14:42:16;102744.69;;;6.03;66.44
47054;BME280;32811;52.382;5.270;2023-03-01T14:44:46;102703.22;;;5.79;67.37
47054;BME280;32811;52.382;5.270;2023-03-01T14:47:16;102712.09;;;5.86;63.81
47054;BME280;32811;52.382;5.270;2023-03-01T14:49:47;102730.28;;;5.91;65.96
47054;BME280;32811;52.382;5.270;2023-03-01T14:52:21;102730.84;;;5.85;69.56
47054;BME280;32811;52.382;5.270;2023-03-01T14:54:53;102720.84;;;5.90;66.18
47054;BME280;32811;52.382;5.270;2023-03-01T14:57:22;102723.41;;;5.90;67.77
47054;BME280;32811;52.382;5.270;2023-03-01T14:59:51;102702.25;;;5.94;66.80
47054;BME280;32811;52.382;5.270;2023-03-01T15:02:24;102722.59;;;6.06;67.99
47054;BME280;32811;52.382;5.270;2023-03-01T15:04:54;102707.50;;;5.95;70.70
47054;BME280;32811;52.382;5.270;2023-03-01T15:07:30;102717.28;;;6.02;70.14
47054;BME280;32811;52.382;5.270;2023-03-01T15:09:58;102705.44;;;6.05;68.31
47054;BME280;32811;52.382;5.270;2023-03-01T15:14:56;102721.53;;;6.02;67.35
47054;BME280;32811;52.382;5.270;2023-03-01T15:17:35;102714.19;;;5.93;69.69
47054;BME280;32811;52.382;5.270;2023-03-01T15:20:05;102699.88;;;5.80;67.15